sensor_id;sensor_type;location;lat;lon;timestamp;temperature;humidity
18823;DHT22;9540;51.550;7.980;2023-09-19T00:00:16;15.10;99.90
18823;DHT22;9540;51.550;7.980;2023-09-19T00:02:45;15.10;99.90
18823;DHT22;9540;51.550;7.980;2023-09-19T00:05:13;15.10;99.90
18823;DHT22;9540;51.550;7.980;2023-09-19T00:07:40;15.00;99.90
18823;DHT22;9540;51.550;7.980;2023-09-19T00:10:08;15.00;99.90
18823;DHT22;9540;51.550;7.980;2023-09-19T00:12:36;15.00;99.90
18823;DHT22;9540;51.550;7.980;2023-09-19T00:15:05;15.00;99.90
18823;DHT22;9540;51.550;7.980;2023-09-19T00:17:32;15.00;99.90
18823;DHT22;9540;51.550;7.980;2023-09-19T00:20:00;15.10;99.90
18823;DHT22;9540;51.550;7.980;2023-09-19T00:22:40;15.10;99.90
18823;DHT22;9540;51.550;7.980;2023-09-19T00:25:07;15.20;99.90
18823;DHT22;9540;51.550;7.980;2023-09-19T00:27:35;15.20;99.90
18823;DHT22;9540;51.550;7.980;2023-09-19T00:30:07;15.30;99.90
18823;DHT22;9540;51.550;7.980;2023-09-19T00:32:40;15.30;99.90
18823;DHT22;9540;51.550;7.980;2023-09-19T00:35:07;15.40;99.90
18823;DHT22;9540;51.550;7.980;2023-09-19T00:37:36;15.30;99.90
18823;DHT22;9540;51.550;7.980;2023-09-19T00:40:04;15.40;99.90
18823;DHT22;9540;51.550;7.980;2023-09-19T00:42:31;15.30;99.90
18823;DHT22;9540;51.550;7.980;2023-09-19T00:44:59;15.30;99.90
18823;DHT22;9540;51.550;7.980;2023-09-19T00:47:30;15.20;99.90
18823;DHT22;9540;51.550;7.980;2023-09-19T00:49:57;15.20;99.90
18823;DHT22;9540;51.550;7.980;2023-09-19T00:52:25;15.30;99.90
18823;DHT22;9540;51.550;7.980;2023-09-19T00:54:52;15.30;99.90
18823;DHT22;9540;51.550;7.980;2023-09-19T00:57:19;15.30;99.90
18823;DHT22;9540;51.550;7.980;2023-09-19T00:59:49;15.30;99.90
18823;DHT22;9540;51.550;7.980;2023-09-19T01:02:17;15.20;99.90
18823;DHT22;9540;51.550;7.980;2023-09-19T01:04:46;15.20;99.90
18823;DHT22;9540;51.550;7.980;2023-09-19T01:07:13;15.20;99.90
18823;DHT22;9540;51.550;7.980;2023-09-19T01:09:41;15.10;99.90
18823;DHT22;9540;51.550;7.980;2023-09-19T01:12:09;15.10;99.90
18823;DHT22;9540;51.550;7.980;2023-09-19T01:14:57;15.10;99.90
18823;DHT22;9540;51.550;7.980;2023-09-19T01:17:32;15.10;99.90
18823;DHT22;9540;51.550;7.980;2023-09-19T01:20:27;15.10;99.90
18823;DHT22;9540;51.550;7.980;2023-09-19T01:23:05;15.00;99.90
18823;DHT22;9540;51.550;7.980;2023-09-19T01:26:05;15.00;99.90
18823;DHT22;9540;51.550;7.980;2023-09-19T01:28:43;14.90;99.90
18823;DHT22;9540;51.550;7.980;2023-09-19T01:31:14;14.80;99.90
18823;DHT22;9540;51.550;7.980;2023-09-19T01:33:54;14.90;99.90
18823;DHT22;9540;51.550;7.980;2023-09-19T01:36:29;14.90;99.90
18823;DHT22;9540;51.550;7.980;2023-09-19T01:38:57;14.80;99.90
18823;DHT22;9540;51.550;7.980;2023-09-19T01:41:45;14.80;99.90
18823;DHT22;9540;51.550;7.980;2023-09-19T01:44:21;14.90;99.90
18823;DHT22;9540;51.550;7.980;2023-09-19T01:46:50;14.80;99.90
18823;DHT22;9540;51.550;7.980;2023-09-19T01:49:27;14.80;99.90
18823;DHT22;9540;51.550;7.980;2023-09-19T01:52:04;14.80;99.90
18823;DHT22;9540;51.550;7.980;2023-09-19T01:54:36;14.80;99.90
18823;DHT22;9540;51.550;7.980;2023-09-19T01:57:09;14.70;99.90
18823;DHT22;9540;51.550;7.980;2023-09-19T01:59:45;14.70;99.90
18823;DHT22;9540;51.550;7.980;2023-09-19T02:02:15;14.80;99.90
18823;DHT22;9540;51.550;7.980;2023-09-19T02:04:43;14.70;99.90
18823;DHT22;9540;51.550;7.980;2023-09-19T02:07:10;14.80;99.90
18823;DHT22;9540;51.550;7.980;2023-09-19T02:09:37;14.70;99.90
18823;DHT22;9540;51.550;7.980;2023-09-19T02:12:05;14.70;99.90
18823;DHT22;9540;51.550;7.980;2023-09-19T02:14:33;14.70;99.90
18823;DHT22;9540;51.550;7.980;2023-09-19T02:17:01;14.70;99.90
18823;DHT22;9540;51.550;7.980;2023-09-19T02:19:30;14.70;99.90
18823;DHT22;9540;51.550;7.980;2023-09-19T02:21:59;14.70;99.90
18823;DHT22;9540;51.550;7.980;2023-09-19T02:24:28;14.70;99.90
18823;DHT22;9540;51.550;7.980;2023-09-19T02:26:56;14.70;99.90
18823;DHT22;9540;51.550;7.980;2023-09-19T02:29:25;14.60;99.90
18823;DHT22;9540;51.550;7.980;2023-09-19T02:31:52;14.60;99.90
18823;DHT22;9540;51.550;7.980;2023-09-19T02:34:21;14.60;99.90
18823;DHT22;9540;51.550;7.980;2023-09-19T02:36:50;14.60;99.90
18823;DHT22;9540;51.550;7.980;2023-09-19T02:39:19;14.60;99.90
18823;DHT22;9540;51.550;7.980;2023-09-19T02:41:46;14.60;99.90
18823;DHT22;9540;51.550;7.980;2023-09-19T02:44:13;14.70;99.90
18823;DHT22;9540;51.550;7.980;2023-09-19T02:46:40;14.60;99.90
18823;DHT22;9540;51.550;7.980;2023-09-19T02:49:07;14.60;99.90
18823;DHT22;9540;51.550;7.980;2023-09-19T02:51:34;14.60;99.90
18823;DHT22;9540;51.550;7.980;2023-09-19T02:54:03;14.60;99.90
18823;DHT22;9540;51.550;7.980;2023-09-19T02:56:30;14.60;99.90
18823;DHT22;9540;51.550;7.980;2023-09-19T02:58:58;14.60;99.90
18823;DHT22;9540;51.550;7.980;2023-09-19T03:01:26;14.60;99.90
18823;DHT22;9540;51.550;7.980;2023-09-19T03:03:53;14.60;99.90
18823;DHT22;9540;51.550;7.980;2023-09-19T03:06:21;14.50;99.90
18823;DHT22;9540;51.550;7.980;2023-09-19T03:08:49;14.50;99.90
18823;DHT22;9540;51.550;7.980;2023-09-19T03:11:18;14.50;99.90
18823;DHT22;9540;51.550;7.980;2023-09-19T03:13:51;14.50;99.90
18823;DHT22;9540;51.550;7.980;2023-09-19T03:16:18;14.50;99.90
18823;DHT22;9540;51.550;7.980;2023-09-19T03:18:47;14.50;99.90
18823;DHT22;9540;51.550;7.980;2023-09-19T03:21:14;14.50;99.90
18823;DHT22;9540;51.550;7.980;2023-09-19T03:23:41;14.40;99.90
18823;DHT22;9540;51.550;7.980;2023-09-19T03:26:11;14.50;99.90
18823;DHT22;9540;51.550;7.980;2023-09-19T03:28:41;14.40;99.90
18823;DHT22;9540;51.550;7.980;2023-09-19T03:31:09;14.40;99.90
18823;DHT22;9540;51.550;7.980;2023-09-19T03:33:37;14.40;99.90
18823;DHT22;9540;51.550;7.980;2023-09-19T03:36:04;14.40;99.90
18823;DHT22;9540;51.550;7.980;2023-09-19T03:38:32;14.40;99.90
18823;DHT22;9540;51.550;7.980;2023-09-19T03:40:59;14.40;99.90
18823;DHT22;9540;51.550;7.980;2023-09-19T03:43:26;14.40;99.90
18823;DHT22;9540;51.550;7.980;2023-09-19T03:45:54;14.40;99.90
18823;DHT22;9540;51.550;7.980;2023-09-19T03:48:21;14.40;99.90
18823;DHT22;9540;51.550;7.980;2023-09-19T03:50:48;14.40;99.90
18823;DHT22;9540;51.550;7.980;2023-09-19T03:53:16;14.40;99.90
18823;DHT22;9540;51.550;7.980;2023-09-19T03:55:44;14.40;99.90
18823;DHT22;9540;51.550;7.980;2023-09-19T03:58:11;14.40;99.90
18823;DHT22;9540;51.550;7.980;2023-09-19T04:00:38;14.40;99.90
18823;DHT22;9540;51.550;7.980;2023-09-19T04:03:07;14.40;99.90
18823;DHT22;9540;51.550;7.980;2023-09-19T04:05:34;14.30;99.90
18823;DHT22;9540;51.550;7.980;2023-09-19T04:08:01;14.30;99.90
18823;DHT22;9540;51.550;7.980;2023-09-19T04:10:28;14.30;99.90
18823;DHT22;9540;51.550;7.980;2023-09-19T04:12:56;14.30;99.90
18823;DHT22;9540;51.550;7.980;2023-09-19T04:15:23;14.30;99.90
18823;DHT22;9540;51.550;7.980;2023-09-19T04:17:50;14.20;99.90
18823;DHT22;9540;51.550;7.980;2023-09-19T04:20:19;14.20;99.90
18823;DHT22;9540;51.550;7.980;2023-09-19T04:22:48;14.20;99.90
18823;DHT22;9540;51.550;7.980;2023-09-19T04:25:15;14.10;99.90
18823;DHT22;9540;51.550;7.980;2023-09-19T04:27:41;14.10;99.90
18823;DHT22;9540;51.550;7.980;2023-09-19T04:30:10;14.10;99.90
18823;DHT22;9540;51.550;7.980;2023-09-19T04:32:38;14.00;99.90
18823;DHT22;9540;51.550;7.980;2023-09-19T04:35:06;14.10;99.90
18823;DHT22;9540;51.550;7.980;2023-09-19T04:37:37;14.00;99.90
18823;DHT22;9540;51.550;7.980;2023-09-19T04:40:07;13.90;99.90
18823;DHT22;9540;51.550;7.980;2023-09-19T04:42:39;13.90;99.90
18823;DHT22;9540;51.550;7.980;2023-09-19T04:45:07;13.90;99.90
18823;DHT22;9540;51.550;7.980;2023-09-19T04:47:35;13.80;99.90
18823;DHT22;9540;51.550;7.980;2023-09-19T04:50:07;13.80;99.90
18823;DHT22;9540;51.550;7.980;2023-09-19T04:52:40;13.80;99.90
18823;DHT22;9540;51.550;7.980;2023-09-19T04:55:09;13.80;99.90
18823;DHT22;9540;51.550;7.980;2023-09-19T04:57:43;13.80;99.90
18823;DHT22;9540;51.550;7.980;2023-09-19T05:00:12;13.80;99.90
18823;DHT22;9540;51.550;7.980;2023-09-19T05:02:40;13.80;99.90
18823;DHT22;9540;51.550;7.980;2023-09-19T05:05:07;13.80;99.90
18823;DHT22;9540;51.550;7.980;2023-09-19T05:07:35;13.80;99.90
18823;DHT22;9540;51.550;7.980;2023-09-19T05:10:04;13.80;99.90
18823;DHT22;9540;51.550;7.980;2023-09-19T05:12:33;13.80;99.90
18823;DHT22;9540;51.550;7.980;2023-09-19T05:15:00;13.80;99.90
18823;DHT22;9540;51.550;7.980;2023-09-19T05:17:28;13.80;99.90
18823;DHT22;9540;51.550;7.980;2023-09-19T05:19:55;13.80;99.90
18823;DHT22;9540;51.550;7.980;2023-09-19T05:22:22;13.80;99.90
18823;DHT22;9540;51.550;7.980;2023-09-19T05:24:50;13.80;99.90
18823;DHT22;9540;51.550;7.980;2023-09-19T05:27:20;13.70;99.90
18823;DHT22;9540;51.550;7.980;2023-09-19T05:29:47;13.70;99.90
18823;DHT22;9540;51.550;7.980;2023-09-19T05:32:16;13.70;99.90
18823;DHT22;9540;51.550;7.980;2023-09-19T05:34:43;13.70;99.90
18823;DHT22;9540;51.550;7.980;2023-09-19T05:37:10;13.70;99.90
18823;DHT22;9540;51.550;7.980;2023-09-19T05:39:37;13.80;99.90
18823;DHT22;9540;51.550;7.980;2023-09-19T05:42:04;13.80;99.90
18823;DHT22;9540;51.550;7.980;2023-09-19T05:44:32;13.80;99.90
18823;DHT22;9540;51.550;7.980;2023-09-19T05:47:00;13.80;99.90
18823;DHT22;9540;51.550;7.980;2023-09-19T05:49:26;13.80;99.90
18823;DHT22;9540;51.550;7.980;2023-09-19T05:51:54;13.80;99.90
18823;DHT22;9540;51.550;7.980;2023-09-19T05:54:22;13.90;99.90
18823;DHT22;9540;51.550;7.980;2023-09-19T05:56:49;13.90;99.90
18823;DHT22;9540;51.550;7.980;2023-09-19T05:59:18;13.90;99.90
18823;DHT22;9540;51.550;7.980;2023-09-19T06:01:46;13.90;99.90
18823;DHT22;9540;51.550;7.980;2023-09-19T06:04:13;13.90;99.90
18823;DHT22;9540;51.550;7.980;2023-09-19T06:06:40;14.00;99.90
18823;DHT22;9540;51.550;7.980;2023-09-19T06:09:07;13.90;99.90
18823;DHT22;9540;51.550;7.980;2023-09-19T06:11:34;14.00;99.90
18823;DHT22;9540;51.550;7.980;2023-09-19T06:14:01;14.00;99.90
18823;DHT22;9540;51.550;7.980;2023-09-19T06:16:28;14.10;99.90
18823;DHT22;9540;51.550;7.980;2023-09-19T06:18:57;14.10;99.90
18823;DHT22;9540;51.550;7.980;2023-09-19T06:21:24;14.10;99.90
18823;DHT22;9540;51.550;7.980;2023-09-19T06:23:52;14.20;99.90
18823;DHT22;9540;51.550;7.980;2023-09-19T06:26:19;14.20;99.90
18823;DHT22;9540;51.550;7.980;2023-09-19T06:28:46;14.20;99.90
18823;DHT22;9540;51.550;7.980;2023-09-19T06:31:13;14.20;99.90
18823;DHT22;9540;51.550;7.980;2023-09-19T06:33:40;14.20;99.90
18823;DHT22;9540;51.550;7.980;2023-09-19T06:36:10;14.30;99.90
18823;DHT22;9540;51.550;7.980;2023-09-19T06:38:37;14.40;99.90
18823;DHT22;9540;51.550;7.980;2023-09-19T06:41:04;14.30;99.90
18823;DHT22;9540;51.550;7.980;2023-09-19T06:43:33;14.40;99.90
18823;DHT22;9540;51.550;7.980;2023-09-19T06:46:00;14.40;99.90
18823;DHT22;9540;51.550;7.980;2023-09-19T06:48:27;14.40;99.90
18823;DHT22;9540;51.550;7.980;2023-09-19T06:50:55;14.40;99.90
18823;DHT22;9540;51.550;7.980;2023-09-19T06:53:25;14.50;99.90
18823;DHT22;9540;51.550;7.980;2023-09-19T06:55:52;14.50;99.90
18823;DHT22;9540;51.550;7.980;2023-09-19T06:58:19;14.60;99.90
18823;DHT22;9540;51.550;7.980;2023-09-19T07:00:46;14.60;99.90
18823;DHT22;9540;51.550;7.980;2023-09-19T07:03:16;14.60;99.90
18823;DHT22;9540;51.550;7.980;2023-09-19T07:05:47;14.60;99.90
18823;DHT22;9540;51.550;7.980;2023-09-19T07:08:14;14.60;99.90
18823;DHT22;9540;51.550;7.980;2023-09-19T07:10:43;14.70;99.90
18823;DHT22;9540;51.550;7.980;2023-09-19T07:13:14;14.70;99.90
18823;DHT22;9540;51.550;7.980;2023-09-19T07:15:43;14.70;99.90
18823;DHT22;9540;51.550;7.980;2023-09-19T07:18:13;14.70;99.90
18823;DHT22;9540;51.550;7.980;2023-09-19T07:20:41;14.70;99.90
18823;DHT22;9540;51.550;7.980;2023-09-19T07:23:11;14.80;99.90
18823;DHT22;9540;51.550;7.980;2023-09-19T07:25:40;14.80;99.90
18823;DHT22;9540;51.550;7.980;2023-09-19T07:28:08;14.80;99.90
18823;DHT22;9540;51.550;7.980;2023-09-19T07:30:36;14.80;99.90
18823;DHT22;9540;51.550;7.980;2023-09-19T07:33:04;14.80;99.90
18823;DHT22;9540;51.550;7.980;2023-09-19T07:35:31;14.90;99.90
18823;DHT22;9540;51.550;7.980;2023-09-19T07:37:59;14.90;99.90
18823;DHT22;9540;51.550;7.980;2023-09-19T07:40:28;14.90;99.90
18823;DHT22;9540;51.550;7.980;2023-09-19T07:42:55;14.90;99.90
18823;DHT22;9540;51.550;7.980;2023-09-19T07:45:23;15.00;99.90
18823;DHT22;9540;51.550;7.980;2023-09-19T07:47:51;15.10;99.90
18823;DHT22;9540;51.550;7.980;2023-09-19T07:50:19;15.10;99.90
18823;DHT22;9540;51.550;7.980;2023-09-19T07:52:46;15.20;99.90
18823;DHT22;9540;51.550;7.980;2023-09-19T07:55:13;15.20;99.90
18823;DHT22;9540;51.550;7.980;2023-09-19T07:57:43;15.20;99.90
18823;DHT22;9540;51.550;7.980;2023-09-19T08:00:11;15.30;99.90
18823;DHT22;9540;51.550;7.980;2023-09-19T08:02:40;15.30;99.90
18823;DHT22;9540;51.550;7.980;2023-09-19T08:05:08;15.30;99.90
18823;DHT22;9540;51.550;7.980;2023-09-19T08:07:37;15.30;99.90
18823;DHT22;9540;51.550;7.980;2023-09-19T08:10:05;15.50;99.90
18823;DHT22;9540;51.550;7.980;2023-09-19T08:12:33;15.50;99.90
18823;DHT22;9540;51.550;7.980;2023-09-19T08:15:01;15.60;99.90
18823;DHT22;9540;51.550;7.980;2023-09-19T08:17:28;15.60;99.90
18823;DHT22;9540;51.550;7.980;2023-09-19T08:19:56;15.70;99.90
18823;DHT22;9540;51.550;7.980;2023-09-19T08:22:23;15.70;99.90
18823;DHT22;9540;51.550;7.980;2023-09-19T08:24:50;15.80;99.90
18823;DHT22;9540;51.550;7.980;2023-09-19T08:27:17;15.80;99.90
18823;DHT22;9540;51.550;7.980;2023-09-19T08:29:45;15.90;99.90
18823;DHT22;9540;51.550;7.980;2023-09-19T08:32:12;15.90;99.90
18823;DHT22;9540;51.550;7.980;2023-09-19T08:34:40;16.00;99.90
18823;DHT22;9540;51.550;7.980;2023-09-19T08:37:08;16.00;99.90
18823;DHT22;9540;51.550;7.980;2023-09-19T08:39:35;16.10;99.90
18823;DHT22;9540;51.550;7.980;2023-09-19T08:42:03;16.20;99.90
18823;DHT22;9540;51.550;7.980;2023-09-19T08:44:30;16.20;99.90
18823;DHT22;9540;51.550;7.980;2023-09-19T08:47:09;16.40;99.90
18823;DHT22;9540;51.550;7.980;2023-09-19T08:49:44;16.50;99.90
18823;DHT22;9540;51.550;7.980;2023-09-19T08:52:20;16.50;99.90
18823;DHT22;9540;51.550;7.980;2023-09-19T08:54:51;16.50;99.90
18823;DHT22;9540;51.550;7.980;2023-09-19T08:57:19;16.60;99.90
18823;DHT22;9540;51.550;7.980;2023-09-19T08:59:48;16.70;99.90
18823;DHT22;9540;51.550;7.980;2023-09-19T09:02:15;16.70;99.90
18823;DHT22;9540;51.550;7.980;2023-09-19T09:04:45;16.60;99.90
18823;DHT22;9540;51.550;7.980;2023-09-19T09:07:14;16.60;99.90
18823;DHT22;9540;51.550;7.980;2023-09-19T09:09:42;16.60;99.90
18823;DHT22;9540;51.550;7.980;2023-09-19T09:12:11;16.50;99.90
18823;DHT22;9540;51.550;7.980;2023-09-19T09:14:39;16.40;99.90
18823;DHT22;9540;51.550;7.980;2023-09-19T09:17:07;16.50;99.90
18823;DHT22;9540;51.550;7.980;2023-09-19T09:19:34;16.50;99.90
18823;DHT22;9540;51.550;7.980;2023-09-19T09:22:08;16.60;99.90
18823;DHT22;9540;51.550;7.980;2023-09-19T09:24:37;16.60;99.90
18823;DHT22;9540;51.550;7.980;2023-09-19T09:27:19;16.60;99.90
18823;DHT22;9540;51.550;7.980;2023-09-19T09:29:50;16.60;99.90
18823;DHT22;9540;51.550;7.980;2023-09-19T09:32:18;16.70;99.90
18823;DHT22;9540;51.550;7.980;2023-09-19T09:34:45;16.60;99.90
18823;DHT22;9540;51.550;7.980;2023-09-19T09:37:14;16.60;99.90
18823;DHT22;9540;51.550;7.980;2023-09-19T09:39:49;16.60;99.90
18823;DHT22;9540;51.550;7.980;2023-09-19T09:42:29;16.60;99.90
18823;DHT22;9540;51.550;7.980;2023-09-19T09:45:16;16.60;99.90
18823;DHT22;9540;51.550;7.980;2023-09-19T09:47:45;16.70;99.90
18823;DHT22;9540;51.550;7.980;2023-09-19T09:50:25;16.70;99.90
18823;DHT22;9540;51.550;7.980;2023-09-19T09:52:55;16.70;99.90
18823;DHT22;9540;51.550;7.980;2023-09-19T09:55:57;16.70;99.90
18823;DHT22;9540;51.550;7.980;2023-09-19T09:58:25;16.80;99.90
18823;DHT22;9540;51.550;7.980;2023-09-19T10:00:55;17.00;99.90
18823;DHT22;9540;51.550;7.980;2023-09-19T10:03:31;17.00;99.90
18823;DHT22;9540;51.550;7.980;2023-09-19T10:06:00;17.00;99.90
18823;DHT22;9540;51.550;7.980;2023-09-19T10:08:28;17.00;99.90
18823;DHT22;9540;51.550;7.980;2023-09-19T10:10:58;17.00;99.90
18823;DHT22;9540;51.550;7.980;2023-09-19T10:13:32;17.10;99.90
18823;DHT22;9540;51.550;7.980;2023-09-19T10:16:06;17.10;99.90
18823;DHT22;9540;51.550;7.980;2023-09-19T10:18:36;17.20;99.90
18823;DHT22;9540;51.550;7.980;2023-09-19T10:21:05;17.30;99.90
18823;DHT22;9540;51.550;7.980;2023-09-19T10:23:35;17.30;99.90
18823;DHT22;9540;51.550;7.980;2023-09-19T10:26:04;17.40;99.90
18823;DHT22;9540;51.550;7.980;2023-09-19T10:28:32;17.30;99.90
18823;DHT22;9540;51.550;7.980;2023-09-19T10:31:01;17.40;99.90
18823;DHT22;9540;51.550;7.980;2023-09-19T10:33:35;17.50;99.90
18823;DHT22;9540;51.550;7.980;2023-09-19T10:36:05;17.60;99.90
18823;DHT22;9540;51.550;7.980;2023-09-19T10:38:33;17.50;99.90
18823;DHT22;9540;51.550;7.980;2023-09-19T10:41:01;17.50;99.90
18823;DHT22;9540;51.550;7.980;2023-09-19T10:43:32;17.40;99.90
18823;DHT22;9540;51.550;7.980;2023-09-19T10:46:02;17.60;99.90
18823;DHT22;9540;51.550;7.980;2023-09-19T10:48:31;17.70;99.90
18823;DHT22;9540;51.550;7.980;2023-09-19T10:51:04;17.70;99.90
18823;DHT22;9540;51.550;7.980;2023-09-19T10:53:42;17.70;99.90
18823;DHT22;9540;51.550;7.980;2023-09-19T10:56:10;17.70;99.90
18823;DHT22;9540;51.550;7.980;2023-09-19T10:58:44;17.70;99.90
18823;DHT22;9540;51.550;7.980;2023-09-19T11:01:11;17.80;99.90
18823;DHT22;9540;51.550;7.980;2023-09-19T11:03:38;17.90;99.90
18823;DHT22;9540;51.550;7.980;2023-09-19T11:06:11;18.00;99.90
18823;DHT22;9540;51.550;7.980;2023-09-19T11:08:58;18.10;99.90
18823;DHT22;9540;51.550;7.980;2023-09-19T11:11:49;18.10;99.90
18823;DHT22;9540;51.550;7.980;2023-09-19T11:14:40;18.00;99.90
18823;DHT22;9540;51.550;7.980;2023-09-19T11:17:42;18.00;99.90
18823;DHT22;9540;51.550;7.980;2023-09-19T11:20:30;18.20;99.90
18823;DHT22;9540;51.550;7.980;2023-09-19T11:23:20;18.40;99.90
18823;DHT22;9540;51.550;7.980;2023-09-19T11:25:52;18.50;99.90
18823;DHT22;9540;51.550;7.980;2023-09-19T11:28:33;18.60;99.90
18823;DHT22;9540;51.550;7.980;2023-09-19T11:34:46;18.80;99.90
18823;DHT22;9540;51.550;7.980;2023-09-19T11:40:45;19.00;99.90
18823;DHT22;9540;51.550;7.980;2023-09-19T11:43:32;19.00;99.90
18823;DHT22;9540;51.550;7.980;2023-09-19T11:46:09;19.20;99.90
18823;DHT22;9540;51.550;7.980;2023-09-19T11:48:38;19.10;99.90
18823;DHT22;9540;51.550;7.980;2023-09-19T11:51:18;19.20;99.90
18823;DHT22;9540;51.550;7.980;2023-09-19T11:53:48;19.10;99.90
18823;DHT22;9540;51.550;7.980;2023-09-19T11:56:16;19.20;99.90
18823;DHT22;9540;51.550;7.980;2023-09-19T11:58:44;19.20;99.90
18823;DHT22;9540;51.550;7.980;2023-09-19T12:01:13;19.20;99.90
18823;DHT22;9540;51.550;7.980;2023-09-19T12:03:47;19.10;99.90
18823;DHT22;9540;51.550;7.980;2023-09-19T12:06:17;19.20;99.90
18823;DHT22;9540;51.550;7.980;2023-09-19T12:08:44;19.30;99.90
18823;DHT22;9540;51.550;7.980;2023-09-19T12:11:13;19.30;99.90
18823;DHT22;9540;51.550;7.980;2023-09-19T12:13:43;19.30;99.90
18823;DHT22;9540;51.550;7.980;2023-09-19T12:16:14;19.30;99.90
18823;DHT22;9540;51.550;7.980;2023-09-19T12:18:43;19.20;99.90
18823;DHT22;9540;51.550;7.980;2023-09-19T12:21:30;19.10;99.90
18823;DHT22;9540;51.550;7.980;2023-09-19T12:24:06;19.10;99.90
18823;DHT22;9540;51.550;7.980;2023-09-19T12:26:41;19.00;99.90
18823;DHT22;9540;51.550;7.980;2023-09-19T12:29:19;18.80;99.90
18823;DHT22;9540;51.550;7.980;2023-09-19T12:31:53;18.80;99.90
18823;DHT22;9540;51.550;7.980;2023-09-19T12:34:24;18.80;99.90
18823;DHT22;9540;51.550;7.980;2023-09-19T12:37:09;18.90;99.90
18823;DHT22;9540;51.550;7.980;2023-09-19T12:39:42;19.00;99.90
18823;DHT22;9540;51.550;7.980;2023-09-19T12:42:14;19.10;99.90
18823;DHT22;9540;51.550;7.980;2023-09-19T12:44:42;19.20;99.90
18823;DHT22;9540;51.550;7.980;2023-09-19T12:47:11;19.10;99.90
18823;DHT22;9540;51.550;7.980;2023-09-19T12:50:07;19.10;99.90
18823;DHT22;9540;51.550;7.980;2023-09-19T12:52:41;19.10;99.90
18823;DHT22;9540;51.550;7.980;2023-09-19T12:55:19;19.10;99.90
18823;DHT22;9540;51.550;7.980;2023-09-19T12:57:56;19.10;99.90
18823;DHT22;9540;51.550;7.980;2023-09-19T13:00:32;19.10;99.90
18823;DHT22;9540;51.550;7.980;2023-09-19T13:03:13;19.10;99.90
18823;DHT22;9540;51.550;7.980;2023-09-19T13:05:53;19.20;99.90
18823;DHT22;9540;51.550;7.980;2023-09-19T13:08:24;19.10;99.90
18823;DHT22;9540;51.550;7.980;2023-09-19T13:11:04;19.10;99.90
18823;DHT22;9540;51.550;7.980;2023-09-19T13:13:35;19.10;99.90
18823;DHT22;9540;51.550;7.980;2023-09-19T13:16:03;19.30;99.90
18823;DHT22;9540;51.550;7.980;2023-09-19T13:18:44;19.30;99.90
18823;DHT22;9540;51.550;7.980;2023-09-19T13:21:13;19.20;99.90
18823;DHT22;9540;51.550;7.980;2023-09-19T13:23:50;19.30;99.90
18823;DHT22;9540;51.550;7.980;2023-09-19T13:26:17;19.30;99.90
18823;DHT22;9540;51.550;7.980;2023-09-19T13:28:45;19.30;99.90
18823;DHT22;9540;51.550;7.980;2023-09-19T13:31:13;19.40;99.90
18823;DHT22;9540;51.550;7.980;2023-09-19T13:33:43;19.60;99.90
18823;DHT22;9540;51.550;7.980;2023-09-19T13:36:10;19.60;99.90
18823;DHT22;9540;51.550;7.980;2023-09-19T13:38:38;19.60;99.90
18823;DHT22;9540;51.550;7.980;2023-09-19T13:41:07;19.60;99.90
18823;DHT22;9540;51.550;7.980;2023-09-19T13:43:35;19.60;99.90
18823;DHT22;9540;51.550;7.980;2023-09-19T13:46:04;19.70;99.90
18823;DHT22;9540;51.550;7.980;2023-09-19T13:48:33;19.70;99.90
18823;DHT22;9540;51.550;7.980;2023-09-19T13:51:02;19.60;99.90
18823;DHT22;9540;51.550;7.980;2023-09-19T13:53:29;19.70;99.90
18823;DHT22;9540;51.550;7.980;2023-09-19T13:55:56;19.80;99.90
18823;DHT22;9540;51.550;7.980;2023-09-19T13:58:24;19.70;99.90
18823;DHT22;9540;51.550;7.980;2023-09-19T14:00:52;19.60;99.90
18823;DHT22;9540;51.550;7.980;2023-09-19T14:03:21;19.50;99.90
18823;DHT22;9540;51.550;7.980;2023-09-19T14:05:48;19.50;99.90
18823;DHT22;9540;51.550;7.980;2023-09-19T14:08:17;19.60;99.90
18823;DHT22;9540;51.550;7.980;2023-09-19T14:10:44;19.70;99.90
18823;DHT22;9540;51.550;7.980;2023-09-19T14:13:11;19.70;99.90
18823;DHT22;9540;51.550;7.980;2023-09-19T14:15:40;19.80;99.90
18823;DHT22;9540;51.550;7.980;2023-09-19T14:18:08;19.80;99.90
18823;DHT22;9540;51.550;7.980;2023-09-19T14:20:38;19.80;99.90
18823;DHT22;9540;51.550;7.980;2023-09-19T14:23:06;19.90;99.90
18823;DHT22;9540;51.550;7.980;2023-09-19T14:25:34;19.90;99.90
18823;DHT22;9540;51.550;7.980;2023-09-19T14:28:02;19.90;99.90
18823;DHT22;9540;51.550;7.980;2023-09-19T14:30:28;19.90;99.90
18823;DHT22;9540;51.550;7.980;2023-09-19T14:32:57;19.90;99.90
18823;DHT22;9540;51.550;7.980;2023-09-19T14:35:24;20.00;99.90
18823;DHT22;9540;51.550;7.980;2023-09-19T14:37:51;20.00;99.90
18823;DHT22;9540;51.550;7.980;2023-09-19T14:40:18;20.00;99.90
18823;DHT22;9540;51.550;7.980;2023-09-19T14:42:45;20.00;99.90
18823;DHT22;9540;51.550;7.980;2023-09-19T14:45:12;20.00;99.90
18823;DHT22;9540;51.550;7.980;2023-09-19T14:47:42;19.90;99.90
18823;DHT22;9540;51.550;7.980;2023-09-19T14:50:10;19.90;99.90
18823;DHT22;9540;51.550;7.980;2023-09-19T14:52:38;20.00;99.90
18823;DHT22;9540;51.550;7.980;2023-09-19T14:55:06;20.00;99.90
18823;DHT22;9540;51.550;7.980;2023-09-19T14:57:34;20.00;99.90
18823;DHT22;9540;51.550;7.980;2023-09-19T15:00:06;19.80;99.90
18823;DHT22;9540;51.550;7.980;2023-09-19T15:02:37;19.70;99.90
18823;DHT22;9540;51.550;7.980;2023-09-19T15:05:06;19.60;99.90
18823;DHT22;9540;51.550;7.980;2023-09-19T15:07:35;19.60;99.90
18823;DHT22;9540;51.550;7.980;2023-09-19T15:10:03;19.60;99.90
18823;DHT22;9540;51.550;7.980;2023-09-19T15:12:32;19.60;99.90
18823;DHT22;9540;51.550;7.980;2023-09-19T15:15:01;19.50;99.90
18823;DHT22;9540;51.550;7.980;2023-09-19T15:17:30;19.40;99.90
18823;DHT22;9540;51.550;7.980;2023-09-19T15:19:57;19.40;99.90
18823;DHT22;9540;51.550;7.980;2023-09-19T15:22:24;19.40;99.90
18823;DHT22;9540;51.550;7.980;2023-09-19T15:24:53;19.40;99.90
18823;DHT22;9540;51.550;7.980;2023-09-19T15:27:21;19.30;99.90
18823;DHT22;9540;51.550;7.980;2023-09-19T15:29:48;19.30;99.90
18823;DHT22;9540;51.550;7.980;2023-09-19T15:32:15;19.20;99.90
18823;DHT22;9540;51.550;7.980;2023-09-19T15:34:42;19.20;99.90
18823;DHT22;9540;51.550;7.980;2023-09-19T15:37:09;19.10;99.90
18823;DHT22;9540;51.550;7.980;2023-09-19T15:39:36;19.00;99.90
18823;DHT22;9540;51.550;7.980;2023-09-19T15:42:05;19.00;99.90
18823;DHT22;9540;51.550;7.980;2023-09-19T15:44:32;18.90;99.90
18823;DHT22;9540;51.550;7.980;2023-09-19T15:46:59;18.90;99.90
18823;DHT22;9540;51.550;7.980;2023-09-19T15:49:26;18.90;99.90
18823;DHT22;9540;51.550;7.980;2023-09-19T15:51:53;18.80;99.90
18823;DHT22;9540;51.550;7.980;2023-09-19T15:54:20;18.80;99.90
18823;DHT22;9540;51.550;7.980;2023-09-19T15:56:47;18.80;99.90
18823;DHT22;9540;51.550;7.980;2023-09-19T15:59:17;18.80;99.90
18823;DHT22;9540;51.550;7.980;2023-09-19T16:01:44;18.80;99.90
18823;DHT22;9540;51.550;7.980;2023-09-19T16:04:12;18.80;99.90
18823;DHT22;9540;51.550;7.980;2023-09-19T16:06:40;18.80;99.90
18823;DHT22;9540;51.550;7.980;2023-09-19T16:09:08;18.80;99.90